Time;durP1;ratioP1;P1;durP2;ratioP2;P2;SDS_P1;SDS_P2;PMS_P1;PMS_P2;Temp;Humidity;BMP_temperature;BMP_pressure;BME280_temperature;BME280_humidity;BME280_pressure;Samples;Min_cycle;Max_cycle;Signal;HPM_P1;HPM_P2
2023/09/24 05:32:04;;;;;;;3.27;2.00;;;8.00;99.90;;;;;;5041563;28;20289;-34
2023/09/24 05:34:30;;;;;;;3.57;1.87;;;8.00;99.90;;;;;;5025759;28;20251;-34
2023/09/24 05:36:56;;;;;;;2.13;1.87;;;8.10;99.90;;;;;;5013886;28;20202;-35
2023/09/24 05:39:22;;;;;;;2.23;1.60;;;8.10;99.90;;;;;;5045140;28;20210;-33
2023/09/24 05:44:17;;;;;;;3.13;1.70;;;8.10;99.90;;;;;;5021694;28;20294;-28
2023/09/24 05:46:43;;;;;;;2.83;1.80;;;8.20;99.90;;;;;;5020797;28;20183;-28
2023/09/24 05:49:09;;;;;;;2.17;1.97;;;8.20;99.90;;;;;;5003681;28;20219;-28
2023/09/24 05:51:35;;;;;;;2.27;1.93;;;8.30;99.90;;;;;;5020427;28;20214;-28
2023/09/24 05:54:05;;;;;;;2.70;2.37;;;8.40;99.90;;;;;;5018242;28;20329;-28
2023/09/24 05:56:33;;;;;;;4.20;2.50;;;8.50;99.90;;;;;;5012094;28;20190;-28
2023/09/24 05:59:00;;;;;;;2.43;2.10;;;8.50;99.90;;;;;;5015261;28;20217;-30
2023/09/24 06:01:30;;;;;;;2.37;2.13;;;8.60;99.90;;;;;;5006860;28;20174;-28
2023/09/24 06:04:00;;;;;;;3.20;2.63;;;8.60;99.90;;;;;;5020824;28;20261;-28
2023/09/24 06:06:33;;;;;;;2.17;1.97;;;8.70;99.90;;;;;;4999909;28;20331;-29
2023/09/24 06:09:08;;;;;;;2.30;1.87;;;8.80;99.90;;;;;;5009058;28;20241;-28
2023/09/24 06:11:38;;;;;;;1.93;1.70;;;8.80;99.90;;;;;;5028220;28;20214;-28
2023/09/24 06:14:08;;;;;;;2.27;1.70;;;8.90;99.90;;;;;;4991968;28;20203;-28
2023/09/24 06:16:37;;;;;;;2.17;1.97;;;9.00;99.90;;;;;;5003961;28;20190;-27
2023/09/24 06:19:07;;;;;;;3.40;2.20;;;9.00;99.90;;;;;;5022968;28;20206;-29
2023/09/24 06:21:40;;;;;;;2.07;1.80;;;9.10;99.90;;;;;;5030893;28;20197;-28
2023/09/24 06:24:06;;;;;;;1.60;1.50;;;9.10;99.90;;;;;;5020800;28;20207;-28
2023/09/24 06:26:38;;;;;;;1.50;1.40;;;9.20;99.90;;;;;;5037446;28;20223;-27
2023/09/24 06:29:08;;;;;;;2.33;1.63;;;9.20;99.90;;;;;;5008432;28;20206;-28
2023/09/24 06:31:40;;;;;;;1.57;1.47;;;9.20;99.90;;;;;;5026175;28;20186;-29
2023/09/24 06:34:09;;;;;;;1.60;1.50;;;9.30;99.90;;;;;;5046988;28;20233;-28
2023/09/24 06:36:35;;;;;;;1.93;1.73;;;9.40;99.90;;;;;;5007993;28;20183;-29
2023/09/24 06:39:10;;;;;;;3.93;1.90;;;9.40;99.90;;;;;;5019268;28;20207;-29
2023/09/24 06:41:37;;;;;;;1.73;1.63;;;9.50;99.90;;;;;;5012057;28;20181;-29
2023/09/24 06:44:04;;;;;;;4.07;1.60;;;9.50;99.90;;;;;;5045610;28;20211;-29
2023/09/24 06:46:31;;;;;;;1.83;1.70;;;9.60;99.90;;;;;;5044679;28;20316;-29
2023/09/24 06:48:57;;;;;;;2.47;1.83;;;9.60;99.90;;;;;;5049880;28;20170;-29
2023/09/24 06:51:24;;;;;;;2.43;1.70;;;9.70;99.90;;;;;;5044531;28;20182;-28
2023/09/24 06:53:53;;;;;;;1.93;1.80;;;9.70;99.90;;;;;;5065852;28;20955;-28
2023/09/24 06:56:20;;;;;;;9.20;2.30;;;9.70;99.90;;;;;;5032833;28;20189;-28
2023/09/24 06:58:47;;;;;;;1.97;1.67;;;9.70;99.90;;;;;;5056883;28;20179;-30
2023/09/24 07:01:14;;;;;;;1.70;1.60;;;9.70;99.90;;;;;;5033009;28;20214;-28
2023/09/24 07:03:41;;;;;;;2.40;1.60;;;9.80;99.90;;;;;;5031212;28;20206;-29
2023/09/24 07:06:23;;;;;;;2.93;1.87;;;9.90;99.90;;;;;;5046216;28;20182;-29
2023/09/24 07:08:58;;;;;;;2.40;1.80;;;10.00;99.90;;;;;;5023349;28;20190;-29
2023/09/24 07:11:38;;;;;;;1.90;1.80;;;10.10;99.90;;;;;;5045325;28;20178;-28
2023/09/24 07:14:10;;;;;;;1.97;1.80;;;10.30;99.90;;;;;;5047912;28;20242;-30
2023/09/24 07:16:36;;;;;;;1.90;1.57;;;10.30;99.90;;;;;;5056098;28;20186;-28
2023/09/24 07:19:03;;;;;;;1.70;1.60;;;10.40;99.90;;;;;;5041253;28;20236;-30
2023/09/24 07:21:30;;;;;;;5.87;3.20;;;10.50;99.90;;;;;;5034209;28;20181;-28
2023/09/24 07:23:58;;;;;;;2.27;1.77;;;10.60;99.90;;;;;;5047284;28;20190;-28
2023/09/24 07:26:28;;;;;;;2.17;1.67;;;10.70;99.90;;;;;;5041389;28;20183;-28
2023/09/24 07:28:54;;;;;;;2.00;1.80;;;10.70;99.90;;;;;;5039246;28;20647;-30
2023/09/24 07:31:22;;;;;;;2.63;2.03;;;10.80;99.90;;;;;;5056333;28;20285;-29
2023/09/24 07:33:50;;;;;;;1.87;1.77;;;10.90;99.90;;;;;;5047296;28;20207;-28
2023/09/24 07:36:16;;;;;;;2.57;1.63;;;11.10;99.90;;;;;;5040851;28;20262;-28
2023/09/24 07:38:42;;;;;;;1.90;1.70;;;11.10;99.90;;;;;;5048965;28;20186;-30
2023/09/24 07:41:09;;;;;;;2.00;1.70;;;11.20;99.90;;;;;;5053106;28;20211;-29
2023/09/24 07:43:42;;;;;;;2.10;1.90;;;11.30;99.90;;;;;;5046970;28;20297;-29
2023/09/24 07:46:14;;;;;;;2.00;1.80;;;11.40;99.90;;;;;;5039113;28;20206;-29
2023/09/24 07:48:43;;;;;;;1.63;1.53;;;11.50;99.90;;;;;;5037682;28;20182;-29
2023/09/24 07:51:10;;;;;;;1.67;1.57;;;11.60;99.90;;;;;;5048168;28;20184;-30
2023/09/24 07:53:39;;;;;;;2.67;1.90;;;11.70;99.90;;;;;;5043306;28;20212;-30
2023/09/24 07:56:15;;;;;;;2.93;1.90;;;11.90;99.90;;;;;;5063833;28;20287;-30
2023/09/24 07:58:44;;;;;;;2.23;2.03;;;11.90;99.90;;;;;;5044734;28;20197;-29
2023/09/24 08:01:14;;;;;;;2.93;2.33;;;12.00;99.90;;;;;;5042669;28;20229;-29
2023/09/24 08:03:47;;;;;;;4.27;2.00;;;12.10;99.90;;;;;;5043937;28;20236;-29
2023/09/24 08:06:14;;;;;;;2.23;1.67;;;12.30;99.90;;;;;;5045295;28;20197;-29
2023/09/24 08:08:42;;;;;;;3.73;1.63;;;12.40;99.90;;;;;;5045918;28;20194;-29
2023/09/24 08:11:13;;;;;;;2.40;2.00;;;12.50;99.90;;;;;;5055302;28;20209;-30
2023/09/24 08:13:39;;;;;;;3.27;1.80;;;12.60;99.90;;;;;;5044507;28;20209;-30
2023/09/24 08:16:07;;;;;;;2.00;1.70;;;12.70;99.90;;;;;;5045426;28;20186;-29
2023/09/24 08:18:49;;;;;;;1.60;1.50;;;12.80;99.90;;;;;;5041555;28;20201;-29
2023/09/24 08:21:19;;;;;;;1.90;1.70;;;12.90;99.90;;;;;;5047155;28;20185;-30
2023/09/24 08:23:46;;;;;;;2.97;1.80;;;12.90;99.90;;;;;;5042878;28;20251;-28
2023/09/24 08:26:15;;;;;;;1.70;1.57;;;12.90;99.90;;;;;;5028541;28;20191;-29
2023/09/24 08:28:54;;;;;;;3.00;1.87;;;13.10;99.90;;;;;;5047351;28;20196;-29
2023/09/24 08:31:20;;;;;;;2.23;1.60;;;13.20;99.90;;;;;;5030705;28;20205;-30
2023/09/24 08:33:47;;;;;;;1.87;1.53;;;13.40;99.90;;;;;;5043709;28;20201;-29
2023/09/24 08:36:13;;;;;;;2.50;1.80;;;13.50;99.90;;;;;;5026554;28;20188;-30
2023/09/24 08:38:39;;;;;;;3.60;1.60;;;13.60;99.90;;;;;;5040315;28;20193;-29
2023/09/24 08:41:12;;;;;;;3.03;1.53;;;13.80;99.90;;;;;;5032596;28;20206;-29
2023/09/24 08:43:41;;;;;;;1.90;1.77;;;13.90;99.90;;;;;;5047333;28;20242;-31
2023/09/24 08:46:09;;;;;;;2.27;1.70;;;14.10;99.90;;;;;;5056970;28;20202;-30
2023/09/24 08:48:35;;;;;;;2.47;1.70;;;14.20;99.90;;;;;;5029680;28;20182;-29
2023/09/24 08:51:03;;;;;;;3.63;1.70;;;14.30;99.90;;;;;;5039207;28;20240;-30
2023/09/24 08:53:30;;;;;;;4.13;1.90;;;14.50;99.90;;;;;;5046665;28;20206;-29
2023/09/24 08:55:56;;;;;;;2.83;1.87;;;14.70;99.90;;;;;;5046058;28;20266;-29
2023/09/24 08:58:23;;;;;;;1.80;1.60;;;14.90;99.90;;;;;;5047804;28;20189;-30
2023/09/24 09:00:51;;;;;;;2.00;1.60;;;15.00;99.90;;;;;;5044412;28;20203;-30
2023/09/24 09:03:19;;;;;;;3.57;1.60;;;15.30;99.90;;;;;;5036192;28;20228;-30
2023/09/24 09:05:45;;;;;;;2.70;1.70;;;15.40;99.90;;;;;;5043733;28;20205;-30
2023/09/24 09:08:11;;;;;;;2.20;1.57;;;15.50;99.90;;;;;;5030573;28;20182;-30
2023/09/24 09:10:37;;;;;;;2.63;1.70;;;15.70;99.90;;;;;;5060016;28;20639;-29
2023/09/24 09:13:15;;;;;;;3.03;1.67;;;15.80;99.90;;;;;;5049234;28;20197;-30
2023/09/24 09:15:43;;;;;;;1.87;1.50;;;15.90;99.90;;;;;;5059868;28;20178;-30
2023/09/24 09:18:26;;;;;;;2.93;1.57;;;16.00;99.90;;;;;;5032239;28;20189;-30
2023/09/24 09:20:59;;;;;;;3.40;1.80;;;16.00;99.90;;;;;;5042584;28;20239;-30
2023/09/24 09:23:44;;;;;;;3.67;1.57;;;16.20;99.90;;;;;;5053450;28;20198;-29
2023/09/24 09:26:28;;;;;;;3.47;1.50;;;16.20;99.90;;;;;;5050580;28;20653;-30
2023/09/24 09:28:58;;;;;;;2.63;1.60;;;16.30;99.90;;;;;;5045031;28;20220;-28
2023/09/24 09:31:28;;;;;;;1.83;1.27;;;16.40;99.90;;;;;;5046879;28;20185;-29
2023/09/24 09:34:07;;;;;;;3.90;1.52;;;16.50;99.90;;;;;;5045400;28;20197;-29
2023/09/24 09:36:39;;;;;;;2.47;1.45;;;16.60;99.90;;;;;;5042420;28;20169;-29
2023/09/24 09:39:12;;;;;;;2.05;1.60;;;16.80;99.90;;;;;;5051553;28;20235;-29
2023/09/24 09:41:49;;;;;;;2.70;1.45;;;16.90;99.90;;;;;;5045406;28;20248;-30
2023/09/24 09:44:26;;;;;;;3.25;1.38;;;17.00;99.90;;;;;;5047898;28;20182;-29
2023/09/24 09:47:00;;;;;;;3.45;1.80;;;17.10;99.90;;;;;;5048463;28;20195;-30
2023/09/24 09:49:32;;;;;;;3.15;1.60;;;17.20;99.90;;;;;;5050059;28;20316;-30
2023/09/24 09:52:02;;;;;;;2.30;1.30;;;17.30;99.90;;;;;;5032402;28;20182;-29
2023/09/24 09:54:36;;;;;;;3.88;1.58;;;17.50;99.90;;;;;;5044509;28;20193;-29
2023/09/24 09:57:04;;;;;;;2.97;1.60;;;17.70;99.90;;;;;;5007935;28;20193;-30
2023/09/24 09:59:34;;;;;;;4.32;1.60;;;17.70;99.90;;;;;;5040086;28;20335;-28
2023/09/24 10:02:05;;;;;;;2.92;1.60;;;17.80;99.90;;;;;;5036243;28;20186;-29
2023/09/24 10:04:49;;;;;;;3.00;1.45;;;17.90;99.90;;;;;;5064618;28;20229;-32
2023/09/24 10:07:23;;;;;;;1.88;1.55;;;18.00;99.90;;;;;;5044339;28;20206;-30
2023/09/24 10:09:51;;;;;;;4.25;1.80;;;18.10;99.90;;;;;;5044477;28;20182;-29
2023/09/24 10:12:38;;;;;;;1.70;1.20;;;18.20;99.90;;;;;;5047931;28;20669;-30
2023/09/24 10:15:25;;;;;;;1.83;1.23;;;18.30;99.90;;;;;;5032668;28;20177;-29
2023/09/24 10:18:15;;;;;;;1.75;1.10;;;18.40;99.90;;;;;;5045083;28;20190;-30
2023/09/24 10:20:51;;;;;;;2.13;1.50;;;18.50;99.90;;;;;;5060001;28;20210;-29
2023/09/24 10:23:49;;;;;;;1.88;1.17;;;18.70;99.90;;;;;;5055093;28;20201;-29
2023/09/24 10:26:48;;;;;;;2.40;1.50;;;18.70;99.90;;;;;;5047926;28;20269;-30
2023/09/24 10:29:43;;;;;;;2.95;1.35;;;18.90;99.90;;;;;;5047259;28;20265;-30
2023/09/24 10:32:17;;;;;;;1.33;1.20;;;19.00;99.90;;;;;;5028605;28;20617;-30
2023/09/24 10:35:02;;;;;;;3.25;1.30;;;19.10;99.90;;;;;;5031100;28;20255;-31
2023/09/24 10:37:30;;;;;;;1.75;1.10;;;19.30;99.90;;;;;;5034972;28;20273;-30
2023/09/24 10:40:02;;;;;;;3.55;1.55;;;19.30;99.90;;;;;;5032407;28;20209;-30
2023/09/24 10:42:42;;;;;;;2.53;1.27;;;19.30;99.90;;;;;;5043244;28;20284;-30
2023/09/24 10:45:12;;;;;;;2.45;1.30;;;19.40;99.90;;;;;;5039328;28;20192;-29
2023/09/24 10:47:42;;;;;;;3.45;1.10;;;19.60;99.90;;;;;;5041850;28;20189;-30
2023/09/24 10:50:13;;;;;;;3.03;1.30;;;19.70;99.90;;;;;;5040120;28;20193;-30
2023/09/24 10:53:00;;;;;;;4.13;1.30;;;19.70;99.90;;;;;;5045281;28;20301;-30
2023/09/24 10:55:30;;;;;;;1.98;1.25;;;19.90;99.90;;;;;;5043958;28;20182;-30
2023/09/24 10:58:11;;;;;;;1.77;1.27;;;20.00;99.90;;;;;;5056296;28;20182;-30
2023/09/24 11:00:43;;;;;;;3.80;1.38;;;20.00;99.90;;;;;;5062913;28;20288;-30
2023/09/24 11:03:15;;;;;;;3.00;1.25;;;19.90;99.90;;;;;;5063089;28;20217;-31
2023/09/24 11:05:47;;;;;;;2.13;1.42;;;19.90;99.90;;;;;;5032695;28;20189;-29
2023/09/24 11:08:18;;;;;;;2.17;1.38;;;20.00;99.90;;;;;;5045070;28;20206;-29
2023/09/24 11:10:52;;;;;;;2.80;1.30;;;20.00;99.90;;;;;;5044863;28;20201;-29
2023/09/24 11:13:25;;;;;;;2.67;1.40;;;19.90;99.90;;;;;;5038780;28;20220;-29
2023/09/24 11:15:58;;;;;;;2.17;1.20;;;19.90;99.90;;;;;;5030070;28;20201;-29
2023/09/24 11:18:28;;;;;;;3.42;1.02;;;20.00;99.90;;;;;;5046233;28;20218;-29
2023/09/24 11:20:57;;;;;;;2.00;1.20;;;20.10;99.90;;;;;;5048293;28;20212;-29
2023/09/24 11:23:41;;;;;;;1.52;1.00;;;20.20;99.90;;;;;;5046637;28;20224;-29
2023/09/24 11:26:16;;;;;;;2.20;1.20;;;20.30;99.90;;;;;;5048884;28;20182;-29
2023/09/24 11:28:46;;;;;;;1.83;1.25;;;20.40;99.90;;;;;;5071560;28;20224;-30
2023/09/24 11:31:25;;;;;;;3.25;1.30;;;20.60;99.90;;;;;;5031608;28;20188;-29
2023/09/24 11:33:56;;;;;;;2.08;1.30;;;20.70;99.90;;;;;;5026133;28;20285;-29
2023/09/24 11:36:27;;;;;;;2.28;1.30;;;20.80;99.90;;;;;;5046986;28;20205;-30
2023/09/24 11:39:10;;;;;;;2.88;1.23;;;20.80;99.90;;;;;;5053427;28;20204;-30
2023/09/24 11:41:37;;;;;;;3.28;1.30;;;21.00;99.90;;;;;;5030381;28;20170;-30
2023/09/24 11:44:03;;;;;;;2.40;1.42;;;20.90;99.90;;;;;;5046561;28;20216;-31
2023/09/24 14:25:59;;;;;;;2.10;1.33;;;24.80;99.90;;;;;;5032319;28;20189;-85
2023/09/24 14:28:41;;;;;;;3.13;1.77;;;24.70;99.90;;;;;;5044008;28;20202;-84
2023/09/24 14:31:08;;;;;;;1.98;1.40;;;24.80;99.90;;;;;;5031415;28;20195;-84
2023/09/24 14:33:36;;;;;;;1.67;1.33;;;24.70;99.90;;;;;;5030527;28;20221;-85
2023/09/24 14:36:03;;;;;;;2.08;1.63;;;24.80;99.90;;;;;;5032838;28;20266;-86
2023/09/24 14:38:30;;;;;;;2.42;1.60;;;24.70;99.90;;;;;;5033715;28;20187;-87
2023/09/24 14:40:57;;;;;;;1.98;1.48;;;24.60;99.90;;;;;;5020389;28;20214;-87
2023/09/24 14:43:26;;;;;;;1.65;1.27;;;24.40;99.90;;;;;;5043768;28;20199;-89
2023/09/24 14:46:00;;;;;;;2.17;1.58;;;24.60;99.90;;;;;;5042655;28;20186;-88
2023/09/24 14:48:30;;;;;;;2.75;1.60;;;24.70;99.90;;;;;;5036630;28;20175;-88
2023/09/24 14:50:58;;;;;;;3.42;1.60;;;24.30;99.90;;;;;;5020099;28;20174;-88
2023/09/24 14:53:29;;;;;;;1.67;1.52;;;24.30;99.90;;;;;;5029709;28;20181;-87
2023/09/24 14:55:59;;;;;;;3.25;1.85;;;24.40;99.90;;;;;;5017519;28;20186;-88
2023/09/24 14:58:26;;;;;;;1.83;1.50;;;24.30;99.90;;;;;;5030602;28;20225;-88
2023/09/24 15:00:54;;;;;;;2.25;1.63;;;24.30;99.90;;;;;;5020447;28;20214;-87
2023/09/24 15:03:20;;;;;;;2.30;1.52;;;24.30;99.90;;;;;;5045272;28;20179;-86
2023/09/24 15:05:46;;;;;;;1.88;1.60;;;24.20;99.90;;;;;;5021368;28;20189;-82
2023/09/24 15:08:12;;;;;;;2.67;1.67;;;24.30;99.90;;;;;;5031779;28;20629;-83
2023/09/24 15:11:00;;;;;;;2.88;1.65;;;24.20;99.90;;;;;;5006257;28;20183;-93
2023/09/24 15:13:35;;;;;;;1.83;1.35;;;24.00;99.90;;;;;;5061846;28;20186;-95
2023/09/24 15:16:04;;;;;;;2.10;1.52;;;23.90;99.90;;;;;;5023062;28;20174;-90
2023/09/24 15:18:32;;;;;;;3.85;1.77;;;23.80;99.90;;;;;;5023213;28;20265;-90
2023/09/24 15:20:58;;;;;;;2.38;1.70;;;23.70;99.90;;;;;;5002166;28;20219;-90
2023/09/24 15:23:25;;;;;;;3.60;1.63;;;23.60;99.90;;;;;;5026704;28;20174;-90
2023/09/24 15:25:51;;;;;;;2.60;1.40;;;23.30;99.90;;;;;;5024883;28;20209;-90
2023/09/24 15:28:17;;;;;;;3.05;1.60;;;23.30;99.90;;;;;;5005609;28;20210;-83
2023/09/24 15:30:47;;;;;;;1.70;1.42;;;23.20;99.90;;;;;;5014720;28;20194;-83
2023/09/24 15:33:16;;;;;;;2.35;1.50;;;23.20;99.90;;;;;;5009738;28;20186;-89
2023/09/24 15:35:42;;;;;;;2.25;1.60;;;23.20;99.90;;;;;;5022313;28;20229;-84
2023/09/24 15:38:14;;;;;;;2.08;1.67;;;23.10;99.90;;;;;;5020791;28;20187;-85
2023/09/24 15:40:41;;;;;;;1.75;1.42;;;23.00;99.90;;;;;;5037282;28;20203;-91
2023/09/24 16:17:31;;;;;;;2.13;1.40;;;20.90;99.90;;;;;;5046407;28;20199;-96
2023/09/24 17:30:17;;;;;;;1.42;1.10;;;17.60;99.90;;;;;;5012180;22;20235;-39
2023/09/24 17:32:44;;;;;;;1.75;1.17;;;17.50;99.90;;;;;;5050358;28;20170;-41
2023/09/24 17:35:10;;;;;;;1.40;1.30;;;17.40;99.90;;;;;;5032782;28;20177;-40
2023/09/24 17:37:36;;;;;;;2.83;1.13;;;17.40;99.90;;;;;;5040623;28;20185;-40
2023/09/24 17:40:03;;;;;;;1.40;1.30;;;17.30;99.90;;;;;;5036916;28;20209;-40
2023/09/24 17:42:31;;;;;;;1.25;1.15;;;17.30;99.90;;;;;;5034524;28;20182;-40
2023/09/24 17:44:57;;;;;;;3.17;1.38;;;17.30;99.90;;;;;;5054618;28;20189;-34
2023/09/24 17:47:23;;;;;;;2.47;1.27;;;17.20;99.90;;;;;;5029204;28;20178;-34
2023/09/24 17:49:49;;;;;;;2.45;1.30;;;17.20;99.90;;;;;;5029137;28;20201;-36
2023/09/24 17:52:15;;;;;;;1.73;1.20;;;17.20;99.90;;;;;;5029439;28;20232;-34
2023/09/24 17:54:40;;;;;;;1.88;1.20;;;17.10;99.90;;;;;;5030296;28;20311;-35
2023/09/24 17:57:06;;;;;;;2.10;1.27;;;17.10;99.90;;;;;;5018332;28;20182;-35
2023/09/24 17:59:32;;;;;;;2.55;1.20;;;17.10;99.90;;;;;;5036757;28;20208;-35
2023/09/24 18:01:58;;;;;;;2.03;1.45;;;16.90;99.90;;;;;;5036810;28;20214;-35
2023/09/24 18:04:24;;;;;;;2.05;1.30;;;16.80;99.90;;;;;;5025105;28;20643;-37
2023/09/24 18:06:50;;;;;;;2.35;1.20;;;16.80;99.90;;;;;;5030806;28;20182;-37
2023/09/24 18:09:16;;;;;;;1.98;1.33;;;16.70;99.90;;;;;;5012292;28;20292;-35
2023/09/24 18:11:42;;;;;;;1.63;1.50;;;16.60;99.90;;;;;;5041124;28;20182;-37
2023/09/24 18:14:08;;;;;;;3.35;1.40;;;16.50;99.90;;;;;;5008397;28;20265;-35
2023/09/24 18:16:36;;;;;;;2.42;1.50;;;16.50;99.90;;;;;;5050572;28;20320;-37
2023/09/24 18:19:03;;;;;;;2.10;1.58;;;16.40;99.90;;;;;;5004541;28;20226;-35
2023/09/24 18:21:29;;;;;;;2.88;1.58;;;16.30;99.90;;;;;;5021454;28;20206;-33
2023/09/24 18:23:56;;;;;;;2.17;1.35;;;16.20;99.90;;;;;;5019415;28;20320;-35
2023/09/24 18:26:24;;;;;;;2.45;1.30;;;16.00;99.90;;;;;;5027029;28;20182;-35
2023/09/24 18:28:51;;;;;;;1.30;1.20;;;15.90;99.90;;;;;;5011065;28;20201;-38
2023/09/24 18:31:17;;;;;;;2.85;1.80;;;15.70;99.90;;;;;;5030558;28;20202;-37
2023/09/24 18:33:43;;;;;;;3.27;2.00;;;15.60;99.90;;;;;;5033073;28;20327;-34
2023/09/24 18:36:09;;;;;;;4.33;3.50;;;15.50;99.90;;;;;;5022508;28;20182;-34
2023/09/24 18:38:35;;;;;;;4.77;3.10;;;15.40;99.90;;;;;;5050588;28;20291;-34
2023/09/24 18:41:01;;;;;;;3.60;2.00;;;15.30;99.90;;;;;;5015971;28;20213;-37
2023/09/24 18:43:27;;;;;;;2.07;1.80;;;15.20;99.90;;;;;;5045103;28;20276;-37
2023/09/24 18:46:00;;;;;;;2.97;1.60;;;15.00;99.90;;;;;;5029107;28;20177;-34
2023/09/24 18:48:28;;;;;;;2.67;1.43;;;14.90;99.90;;;;;;5047124;28;20197;-33
2023/09/24 18:50:57;;;;;;;2.60;1.77;;;14.80;99.90;;;;;;5027992;28;20182;-35
2023/09/24 18:53:25;;;;;;;2.47;1.43;;;14.70;99.90;;;;;;5028135;28;20210;-36
2023/09/24 18:56:04;;;;;;;2.63;1.60;;;14.50;99.90;;;;;;5045171;28;20654;-34
2023/09/24 18:58:32;;;;;;;1.77;1.47;;;14.30;99.90;;;;;;5031158;28;20308;-33
2023/09/24 19:01:08;;;;;;;3.37;1.70;;;14.20;99.90;;;;;;5005641;28;20209;-38
2023/09/24 19:03:35;;;;;;;3.40;1.70;;;14.10;99.90;;;;;;5016398;28;20184;-37
2023/09/24 19:06:24;;;;;;;3.30;1.60;;;14.10;99.90;;;;;;5044595;28;20179;-34
2023/09/24 19:08:53;;;;;;;2.93;1.37;;;14.10;99.90;;;;;;5044401;28;20209;-32
2023/09/24 19:11:25;;;;;;;3.70;1.90;;;14.20;99.90;;;;;;5015980;28;20186;-35
2023/09/24 19:13:54;;;;;;;3.40;2.10;;;14.10;99.90;;;;;;5025135;28;20197;-35
2023/09/24 19:16:19;;;;;;;2.30;2.00;;;14.10;99.90;;;;;;5044220;28;20182;-34
2023/09/24 19:18:45;;;;;;;2.93;2.00;;;14.10;99.90;;;;;;5030222;28;20201;-33
2023/09/24 19:21:11;;;;;;;1.93;1.60;;;14.00;99.90;;;;;;5011968;28;20206;-38
2023/09/24 19:23:37;;;;;;;3.57;1.90;;;13.90;99.90;;;;;;5028020;28;20194;-35
2023/09/24 19:26:10;;;;;;;2.73;1.70;;;13.80;99.90;;;;;;5030731;28;20182;-35
2023/09/24 19:28:36;;;;;;;3.83;1.97;;;13.80;99.90;;;;;;5038066;28;20204;-37
2023/09/24 19:31:09;;;;;;;2.47;1.67;;;13.80;99.90;;;;;;5028454;28;20281;-31
2023/09/24 19:33:38;;;;;;;2.80;1.97;;;13.80;99.90;;;;;;5049603;28;20186;-34
2023/09/24 19:36:05;;;;;;;2.40;1.77;;;13.80;99.90;;;;;;5031584;28;20259;-35
2023/09/24 19:38:31;;;;;;;2.87;1.80;;;13.80;99.90;;;;;;5036140;28;20271;-38
2023/09/24 19:41:01;;;;;;;2.27;1.60;;;13.80;99.90;;;;;;5014977;28;20230;-36
2023/09/24 19:43:27;;;;;;;2.63;1.90;;;13.70;99.90;;;;;;5043768;28;20178;-37
2023/09/24 19:45:55;;;;;;;3.47;1.97;;;13.60;99.90;;;;;;5044328;28;20170;-33
2023/09/24 19:48:25;;;;;;;3.80;1.53;;;13.50;99.90;;;;;;5042453;28;20347;-33
2023/09/24 19:50:52;;;;;;;3.10;2.00;;;13.40;99.90;;;;;;5027079;28;20276;-36
2023/09/24 19:53:18;;;;;;;2.80;1.90;;;13.40;99.90;;;;;;5023116;28;20182;-32
2023/09/24 19:55:51;;;;;;;4.07;2.03;;;13.40;99.90;;;;;;5027962;28;20186;-35
2023/09/24 19:58:18;;;;;;;3.13;2.13;;;13.30;99.90;;;;;;5032488;28;20427;-36
2023/09/24 20:00:44;;;;;;;2.83;2.10;;;13.30;99.90;;;;;;5011077;28;20198;-35
2023/09/24 20:03:11;;;;;;;2.27;1.97;;;13.30;99.90;;;;;;5012087;28;20174;-35
2023/09/24 20:05:45;;;;;;;3.70;2.27;;;13.30;99.90;;;;;;5044941;28;20239;-34
2023/09/24 20:08:20;;;;;;;3.93;2.00;;;13.20;99.90;;;;;;5023851;28;20201;-32
2023/09/24 20:10:47;;;;;;;3.00;2.30;;;13.20;99.90;;;;;;5027290;28;20193;-35
2023/09/24 20:13:16;;;;;;;2.97;2.10;;;13.10;99.90;;;;;;5029533;28;20239;-33
2023/09/24 20:15:43;;;;;;;2.27;1.97;;;13.00;99.90;;;;;;5042467;28;20195;-38
2023/09/24 20:18:10;;;;;;;3.50;2.10;;;12.90;99.90;;;;;;5037121;28;20360;-36
2023/09/24 20:20:37;;;;;;;2.20;1.97;;;12.80;99.90;;;;;;5020781;28;20210;-36
2023/09/24 20:23:04;;;;;;;5.37;1.97;;;12.70;99.90;;;;;;5038947;28;20182;-36
2023/09/24 20:25:39;;;;;;;4.43;2.30;;;12.70;99.90;;;;;;5029507;28;20196;-35
2023/09/24 20:28:05;;;;;;;2.93;2.20;;;12.60;99.90;;;;;;5026620;28;20177;-34
2023/09/24 20:30:31;;;;;;;5.73;2.73;;;12.60;99.90;;;;;;5048462;28;20211;-33
2023/09/24 20:32:57;;;;;;;3.53;2.57;;;12.50;99.90;;;;;;5032333;28;20193;-32
2023/09/24 20:35:23;;;;;;;3.70;2.07;;;12.50;99.90;;;;;;5032472;28;20189;-35
2023/09/24 20:37:50;;;;;;;3.53;2.47;;;12.40;99.90;;;;;;5031706;28;20284;-36
2023/09/24 20:40:16;;;;;;;3.37;2.30;;;12.40;99.90;;;;;;5032347;28;20217;-35
2023/09/24 20:42:42;;;;;;;2.90;2.00;;;12.40;99.90;;;;;;5020567;28;20186;-36
2023/09/24 20:45:09;;;;;;;3.03;1.90;;;12.30;99.90;;;;;;5031283;28;20182;-34
2023/09/24 20:47:36;;;;;;;4.27;2.37;;;12.30;99.90;;;;;;5030537;28;20216;-34
2023/09/24 20:50:03;;;;;;;3.70;2.10;;;12.30;99.90;;;;;;5032507;28;20206;-33
2023/09/24 20:52:29;;;;;;;3.47;2.30;;;12.20;99.90;;;;;;5040481;28;20264;-35
2023/09/24 20:54:55;;;;;;;3.03;1.80;;;12.10;99.90;;;;;;5031930;28;20280;-34
2023/09/24 20:57:21;;;;;;;3.40;2.10;;;12.10;99.90;;;;;;5046107;28;20197;-35
2023/09/24 21:00:04;;;;;;;3.50;2.03;;;12.00;99.90;;;;;;5049858;28;20206;-33
2023/09/24 21:02:30;;;;;;;4.20;2.13;;;11.90;99.90;;;;;;5030754;28;20707;-33
2023/09/24 21:04:59;;;;;;;2.67;1.90;;;11.80;99.90;;;;;;5030859;28;20254;-32
2023/09/24 21:07:28;;;;;;;2.33;1.97;;;11.70;99.90;;;;;;5036143;28;20188;-32
2023/09/24 21:09:53;;;;;;;3.17;1.90;;;11.70;99.90;;;;;;5027292;28;20205;-32
2023/09/24 21:12:21;;;;;;;3.93;2.23;;;11.70;99.90;;;;;;5035595;28;20192;-32
2023/09/24 21:14:56;;;;;;;3.33;2.30;;;11.70;99.90;;;;;;5034466;28;20181;-33
2023/09/24 21:17:24;;;;;;;2.80;2.10;;;11.70;99.90;;;;;;5031381;28;20263;-33
2023/09/24 21:19:51;;;;;;;2.60;2.00;;;11.60;99.90;;;;;;5019137;28;20199;-33
2023/09/24 21:22:19;;;;;;;3.70;2.20;;;11.50;99.90;;;;;;5052050;28;20178;-36
2023/09/24 21:24:51;;;;;;;2.50;2.30;;;11.50;99.90;;;;;;5035815;28;20180;-35
2023/09/24 21:27:17;;;;;;;5.13;2.23;;;11.40;99.90;;;;;;5027028;28;20173;-35
2023/09/24 21:29:50;;;;;;;4.27;2.50;;;11.40;99.90;;;;;;5034698;28;20291;-35
2023/09/24 21:32:16;;;;;;;2.27;2.03;;;11.40;99.90;;;;;;5034100;28;20189;-32
2023/09/24 21:34:42;;;;;;;5.83;2.30;;;11.30;99.90;;;;;;5018895;28;20192;-31
2023/09/24 21:37:10;;;;;;;3.23;2.30;;;11.30;99.90;;;;;;5028744;28;20252;-32
2023/09/24 21:39:37;;;;;;;2.53;2.30;;;11.30;99.90;;;;;;5051706;28;20212;-33
2023/09/24 21:42:02;;;;;;;2.33;2.10;;;11.20;99.90;;;;;;5017475;28;20184;-33
2023/09/24 21:44:28;;;;;;;2.73;2.10;;;11.20;99.90;;;;;;5018440;28;20244;-33
2023/09/24 21:46:55;;;;;;;2.40;2.13;;;11.20;99.90;;;;;;5018412;28;20171;-34
2023/09/24 21:49:21;;;;;;;2.73;2.23;;;11.10;99.90;;;;;;5050886;28;20207;-34
2023/09/24 21:51:47;;;;;;;2.77;2.13;;;11.10;99.90;;;;;;5051283;28;20195;-33
2023/09/24 21:54:13;;;;;;;4.73;2.20;;;11.10;99.90;;;;;;5018543;28;20183;-35
2023/09/24 21:56:39;;;;;;;3.77;2.10;;;11.00;99.90;;;;;;5016755;28;20208;-34
2023/09/24 21:59:05;;;;;;;4.00;2.47;;;11.00;99.90;;;;;;5035064;28;20253;-33
2023/09/24 22:01:31;;;;;;;2.70;2.07;;;11.00;99.90;;;;;;5018289;28;20223;-39
2023/09/24 22:03:57;;;;;;;2.53;2.17;;;10.90;99.90;;;;;;5017944;28;20182;-33
2023/09/24 22:06:27;;;;;;;2.63;2.07;;;10.90;99.90;;;;;;5018132;28;20274;-34
2023/09/24 22:08:53;;;;;;;4.77;2.30;;;10.80;99.90;;;;;;5018362;28;20195;-32
2023/09/24 22:11:19;;;;;;;3.13;1.83;;;10.80;99.90;;;;;;5017681;28;20181;-33
2023/09/24 22:13:45;;;;;;;2.23;2.03;;;10.80;99.90;;;;;;5017252;28;20218;-36
2023/09/24 22:16:10;;;;;;;2.77;2.03;;;10.70;99.90;;;;;;5018016;28;20183;-33
2023/09/24 22:18:36;;;;;;;3.20;2.10;;;10.70;99.90;;;;;;5034104;28;20203;-33
2023/09/24 22:21:03;;;;;;;2.70;1.70;;;10.70;99.90;;;;;;5018053;28;20209;-35
2023/09/24 22:23:30;;;;;;;2.17;1.90;;;10.70;99.90;;;;;;5018103;28;20274;-34
2023/09/24 22:25:59;;;;;;;3.17;2.10;;;10.60;99.90;;;;;;5017499;28;20175;-37
2023/09/24 22:28:28;;;;;;;3.97;2.30;;;10.60;99.90;;;;;;5018186;28;20259;-33
2023/09/24 22:31:02;;;;;;;3.10;1.97;;;10.60;99.90;;;;;;5014482;28;20200;-34
2023/09/24 22:33:27;;;;;;;3.70;2.33;;;10.50;99.90;;;;;;4993672;28;20190;-34
2023/09/24 22:35:53;;;;;;;3.37;2.13;;;10.50;99.90;;;;;;4997995;28;20179;-33
2023/09/24 22:38:19;;;;;;;2.70;1.80;;;10.50;99.90;;;;;;4996687;28;20217;-35
2023/09/24 22:40:45;;;;;;;3.80;2.07;;;10.50;99.90;;;;;;4997738;28;20222;-32
2023/09/24 22:43:11;;;;;;;3.97;2.30;;;10.40;99.90;;;;;;5014103;28;20183;-34
2023/09/24 22:45:37;;;;;;;2.93;1.80;;;10.30;99.90;;;;;;5013984;28;20174;-32
2023/09/24 22:48:03;;;;;;;2.57;2.03;;;10.40;99.90;;;;;;4998150;28;20261;-33
2023/09/24 22:50:29;;;;;;;2.87;2.20;;;10.30;99.90;;;;;;4997928;28;20189;-36
2023/09/24 22:52:55;;;;;;;2.93;2.00;;;10.30;99.90;;;;;;5010849;28;20187;-34
2023/09/24 22:55:20;;;;;;;2.30;1.90;;;10.30;99.90;;;;;;5011033;28;20178;-35
2023/09/24 22:57:46;;;;;;;2.87;2.07;;;10.30;99.90;;;;;;5013875;28;20194;-34